Time;durP1;ratioP1;P1;durP2;ratioP2;P2;SDS_P1;SDS_P2;PMS_P1;PMS_P2;Temp;Humidity;BMP_temperature;BMP_pressure;BME280_temperature;BME280_humidity;BME280_pressure;Samples;Min_cycle;Max_cycle;Signal;HPM_P1;HPM_P2
2023/04/28 00:00:49;;;;;;;;;;;;;;;21.94;45.73;100576.78;7253154;19;152595;-57
2023/04/28 00:03:19;;;;;;;;;;;;;;;21.94;46.02;100571.16;7253894;19;154095;-57
2023/04/28 00:05:48;;;;;;;;;;;;;;;21.93;45.82;100572.28;7251486;19;155439;-57
2023/04/28 00:08:15;;;;;;;;;;;;;;;21.93;46.05;100572.28;7257450;19;153564;-56
2023/04/28 00:10:42;;;;;;;;;;;;;;;21.92;45.89;100563.00;7255252;19;154412;-57
2023/04/28 00:13:10;;;;;;;;;;;;;;;21.92;45.88;100564.97;7261647;19;154342;-56
2023/04/28 00:15:37;;;;;;;;;;;;;;;21.91;45.78;100561.31;7251862;19;154697;-57
2023/04/28 00:18:04;;;;;;;;;;;;;;;21.91;46.11;100554.88;7252545;19;153191;-57
2023/04/28 00:20:32;;;;;;;;;;;;;;;21.89;45.95;100552.41;7253874;19;153652;-57
2023/04/28 00:22:58;;;;;;;;;;;;;;;21.88;46.07;100547.94;7252301;19;154802;-56
2023/04/28 00:25:25;;;;;;;;;;;;;;;21.89;46.07;100545.94;7253170;19;154676;-56
2023/04/28 00:27:52;;;;;;;;;;;;;;;21.88;46.07;100528.25;7252682;19;154080;-56
2023/04/28 00:30:20;;;;;;;;;;;;;;;21.88;46.22;100536.69;7250276;19;154590;-56
2023/04/28 00:32:46;;;;;;;;;;;;;;;21.86;46.37;100530.53;7251420;19;153424;-56
2023/04/28 00:35:14;;;;;;;;;;;;;;;21.85;46.10;100528.88;7263570;19;153449;-56
2023/04/28 00:37:41;;;;;;;;;;;;;;;21.85;46.45;100540.13;7251321;19;153451;-55
2023/04/28 00:40:08;;;;;;;;;;;;;;;21.85;46.61;100534.50;7253796;19;153028;-57
2023/04/28 00:42:38;;;;;;;;;;;;;;;21.84;46.38;100530.06;7250059;19;153730;-55
2023/04/28 00:45:06;;;;;;;;;;;;;;;21.83;46.65;100530.38;7249967;19;153061;-57
2023/04/28 00:47:33;;;;;;;;;;;;;;;21.82;47.07;100528.72;7250425;19;151969;-57
2023/04/28 00:50:01;;;;;;;;;;;;;;;21.83;47.07;100531.19;7254118;19;154823;-57
2023/04/28 00:52:28;;;;;;;;;;;;;;;21.80;47.21;100523.44;7250139;19;156064;-54
2023/04/28 00:54:56;;;;;;;;;;;;;;;21.79;47.20;100523.75;7251659;19;154830;-56
2023/04/28 00:57:23;;;;;;;;;;;;;;;21.74;47.15;100519.09;7260260;19;153617;-56
2023/04/28 00:59:53;;;;;;;;;;;;;;;21.76;47.48;100521.59;7249642;19;153477;-56
2023/04/28 01:02:20;;;;;;;;;;;;;;;21.70;47.30;100526.53;7250376;19;153640;-57
2023/04/28 01:04:51;;;;;;;;;;;;;;;21.68;47.55;100517.59;7252448;19;155765;-57
2023/04/28 01:07:18;;;;;;;;;;;;;;;21.69;47.84;100528.53;7253072;19;154749;-57
2023/04/28 01:09:46;;;;;;;;;;;;;;;21.66;47.87;100531.16;7251354;19;153645;-57
2023/04/28 01:12:13;;;;;;;;;;;;;;;21.66;47.50;100522.72;7245860;19;152766;-57
2023/04/28 01:14:40;;;;;;;;;;;;;;;21.61;47.64;100520.91;7249511;19;153161;-57
2023/04/28 01:17:08;;;;;;;;;;;;;;;21.59;48.00;100520.38;7257492;19;154272;-56
2023/04/28 01:19:35;;;;;;;;;;;;;;;21.56;48.00;100526.66;7249791;19;154603;-57
2023/04/28 01:22:02;;;;;;;;;;;;;;;21.59;48.00;100523.19;7250424;19;153590;-57
2023/04/28 01:24:30;;;;;;;;;;;;;;;21.51;48.05;100524.00;7250317;19;157096;-57
2023/04/28 01:26:57;;;;;;;;;;;;;;;21.52;48.29;100516.41;7249894;19;152129;-57
2023/04/28 01:29:24;;;;;;;;;;;;;;;21.52;48.42;100519.22;7250300;19;155628;-57
2023/04/28 01:31:51;;;;;;;;;;;;;;;21.48;48.71;100515.41;7249135;19;154259;-57
2023/04/28 01:34:18;;;;;;;;;;;;;;;21.46;48.48;100520.50;7251436;19;152236;-57
2023/04/28 01:36:45;;;;;;;;;;;;;;;21.46;48.52;100520.50;7251128;19;155885;-57
2023/04/28 01:39:15;;;;;;;;;;;;;;;21.44;48.90;100509.56;7260188;19;155040;-57
2023/04/28 01:41:42;;;;;;;;;;;;;;;21.41;48.72;100510.22;7257395;19;154696;-57
2023/04/28 01:44:12;;;;;;;;;;;;;;;21.39;48.77;100517.34;7258882;19;152612;-57
2023/04/28 01:46:39;;;;;;;;;;;;;;;21.37;48.72;100508.41;7257750;19;153221;-57
2023/04/28 01:49:06;;;;;;;;;;;;;;;21.36;49.00;100510.38;7256442;19;154537;-57
2023/04/28 01:51:33;;;;;;;;;;;;;;;21.34;49.08;100503.44;7258697;19;156336;-57
2023/04/28 01:54:00;;;;;;;;;;;;;;;21.31;49.25;100502.09;7257470;19;153286;-56
2023/04/28 01:56:27;;;;;;;;;;;;;;;21.28;49.15;100502.75;7256384;19;153513;-56
2023/04/28 01:58:54;;;;;;;;;;;;;;;21.27;49.11;100504.72;7256669;19;154659;-56
2023/04/28 02:01:21;;;;;;;;;;;;;;;21.27;49.26;100507.53;7264724;19;156077;-56
2023/04/28 02:03:49;;;;;;;;;;;;;;;21.26;49.43;100505.88;7257562;19;154732;-56
2023/04/28 02:06:16;;;;;;;;;;;;;;;21.27;49.38;100509.50;7251755;19;153350;-56
2023/04/28 02:08:43;;;;;;;;;;;;;;;21.24;49.01;100507.34;7258671;19;153893;-56
2023/04/28 02:11:10;;;;;;;;;;;;;;;21.21;49.28;100499.59;7253580;19;152953;-56
2023/04/28 02:13:37;;;;;;;;;;;;;;;21.22;49.04;100504.03;7256806;19;153551;-56
2023/04/28 02:16:05;;;;;;;;;;;;;;;21.24;49.26;100505.38;7254060;19;153531;-57
2023/04/28 02:18:32;;;;;;;;;;;;;;;21.23;48.98;100514.13;7255876;19;153335;-57
2023/04/28 02:21:07;;;;;;;;;;;;;;;21.21;49.30;100511.63;7255716;19;153420;-57
2023/04/28 02:23:34;;;;;;;;;;;;;;;21.21;49.16;100508.03;7267681;19;153216;-56
2023/04/28 02:26:02;;;;;;;;;;;;;;;21.18;49.41;100505.84;7255984;19;154094;-56
2023/04/28 02:28:29;;;;;;;;;;;;;;;21.17;49.42;100513.44;7258097;19;154534;-56
2023/04/28 02:31:07;;;;;;;;;;;;;;;21.16;49.27;100517.41;7255463;19;153837;-55
2023/04/28 02:33:34;;;;;;;;;;;;;;;21.12;49.42;100515.53;7257285;19;154558;-55
2023/04/28 02:36:02;;;;;;;;;;;;;;;21.11;49.53;100511.06;7255572;19;152295;-54
2023/04/28 02:38:30;;;;;;;;;;;;;;;21.10;49.54;100521.47;7258318;19;153382;-55
2023/04/28 02:40:58;;;;;;;;;;;;;;;21.10;49.81;100520.66;7255146;19;153944;-55
2023/04/28 02:43:25;;;;;;;;;;;;;;;21.07;49.62;100518.50;7256514;19;156832;-55
2023/04/28 02:45:52;;;;;;;;;;;;;;;21.06;49.35;100520.47;7258624;19;153608;-55
2023/04/28 02:48:19;;;;;;;;;;;;;;;21.04;49.70;100516.31;7256152;19;155976;-55
2023/04/28 02:50:46;;;;;;;;;;;;;;;21.03;49.51;100518.28;7253841;19;154732;-55
2023/04/28 02:53:13;;;;;;;;;;;;;;;21.01;49.69;100509.38;7253404;19;152219;-55
2023/04/28 02:55:40;;;;;;;;;;;;;;;21.02;49.51;100513.84;7254296;19;154053;-55
2023/04/28 02:58:07;;;;;;;;;;;;;;;21.01;49.96;100505.72;7252490;19;154854;-55
2023/04/28 03:00:34;;;;;;;;;;;;;;;20.98;49.56;100510.03;7251753;19;153314;-57
2023/04/28 03:03:01;;;;;;;;;;;;;;;20.98;49.63;100512.00;7255507;19;153112;-55
2023/04/28 03:05:29;;;;;;;;;;;;;;;20.99;49.82;100508.00;7253427;19;156048;-56
2023/04/28 03:07:56;;;;;;;;;;;;;;;20.94;50.08;100513.78;7258930;19;153422;-56
2023/04/28 03:10:23;;;;;;;;;;;;;;;20.95;49.78;100504.19;7252814;19;155954;-55
2023/04/28 03:12:50;;;;;;;;;;;;;;;20.92;50.05;100511.28;7255023;19;152514;-55
2023/04/28 03:15:17;;;;;;;;;;;;;;;20.90;50.38;100507.97;7255191;19;155332;-55
2023/04/28 03:17:44;;;;;;;;;;;;;;;20.89;50.33;100505.50;7250947;19;153664;-55
2023/04/28 03:20:13;;;;;;;;;;;;;;;20.88;50.47;100512.25;7257335;19;154042;-55
2023/04/28 03:22:41;;;;;;;;;;;;;;;20.86;50.53;100516.22;7257711;19;153909;-56
2023/04/28 03:25:09;;;;;;;;;;;;;;;20.86;50.34;100515.38;7253030;19;152698;-56
2023/04/28 03:27:36;;;;;;;;;;;;;;;20.85;50.79;100519.34;7262368;19;153944;-55
2023/04/28 03:30:03;;;;;;;;;;;;;;;20.83;50.65;100516.03;7253461;19;152658;-55
2023/04/28 03:32:30;;;;;;;;;;;;;;;20.82;50.43;100508.75;7254853;19;153796;-55
2023/04/28 03:34:57;;;;;;;;;;;;;;;20.79;50.89;100504.63;7255721;19;154408;-55
2023/04/28 03:37:25;;;;;;;;;;;;;;;20.78;50.73;100508.56;7252949;19;154237;-55
2023/04/28 03:39:52;;;;;;;;;;;;;;;20.78;50.92;100519.81;7256497;19;153281;-57
2023/04/28 03:42:19;;;;;;;;;;;;;;;20.76;50.93;100512.84;7254498;19;154459;-55
2023/04/28 03:44:46;;;;;;;;;;;;;;;20.77;50.96;100514.50;7251483;19;154310;-55
2023/04/28 03:47:12;;;;;;;;;;;;;;;20.75;50.90;100517.66;7254548;19;153727;-55
2023/04/28 03:49:42;;;;;;;;;;;;;;;20.75;51.23;100519.63;7260861;19;153297;-56
2023/04/28 03:52:09;;;;;;;;;;;;;;;20.74;51.22;100518.78;7256221;19;153240;-55
2023/04/28 03:54:36;;;;;;;;;;;;;;;20.73;51.39;100517.13;7254933;19;155217;-54
2023/04/28 03:57:03;;;;;;;;;;;;;;;20.71;51.39;100515.81;7253288;19;155057;-55
2023/04/28 03:59:30;;;;;;;;;;;;;;;20.71;51.08;100516.63;7257794;19;155086;-54
2023/04/28 04:01:57;;;;;;;;;;;;;;;20.70;51.25;100511.31;7254142;19;154479;-54
2023/04/28 04:04:24;;;;;;;;;;;;;;;20.69;50.99;100510.50;7253073;19;153827;-54
2023/04/28 04:06:52;;;;;;;;;;;;;;;20.68;51.58;100517.25;7252837;19;154669;-54
2023/04/28 04:09:19;;;;;;;;;;;;;;;20.67;51.60;100512.78;7254786;19;152644;-55
2023/04/28 04:11:46;;;;;;;;;;;;;;;20.67;51.46;100518.41;7258507;19;153797;-55
2023/04/28 04:14:13;;;;;;;;;;;;;;;20.65;51.56;100529.13;7254800;19;154142;-55
2023/04/28 04:16:41;;;;;;;;;;;;;;;20.65;51.71;100522.69;7251432;19;154076;-56
2023/04/28 04:19:07;;;;;;;;;;;;;;;20.64;51.41;100530.28;7253022;19;155205;-54
2023/04/28 04:21:35;;;;;;;;;;;;;;;20.63;51.40;100531.41;7253295;19;152728;-55
2023/04/28 04:24:02;;;;;;;;;;;;;;;20.62;51.36;100538.19;7253291;19;155153;-55
2023/04/28 04:26:31;;;;;;;;;;;;;;;20.59;51.56;100529.56;7250941;19;154109;-55
2023/04/28 04:28:58;;;;;;;;;;;;;;;20.58;51.45;100537.16;7252098;19;155554;-55
2023/04/28 04:31:25;;;;;;;;;;;;;;;20.58;51.54;100534.34;7251110;19;155441;-54
2023/04/28 04:33:52;;;;;;;;;;;;;;;20.58;51.57;100545.56;7263430;19;154529;-55
2023/04/28 04:36:19;;;;;;;;;;;;;;;20.56;51.67;100542.28;7250536;19;153411;-54
2023/04/28 04:38:46;;;;;;;;;;;;;;;20.57;51.67;100543.09;7252551;19;152221;-54
2023/04/28 04:41:14;;;;;;;;;;;;;;;20.55;51.84;100543.41;7253414;19;153756;-54
2023/04/28 04:43:43;;;;;;;;;;;;;;;20.55;51.90;100548.19;7252179;19;154338;-54
2023/04/28 04:46:10;;;;;;;;;;;;;;;20.54;51.54;100552.16;7250232;19;153700;-55
2023/04/28 04:48:37;;;;;;;;;;;;;;;20.52;52.04;100548.84;7254771;19;155749;-54
2023/04/28 04:51:04;;;;;;;;;;;;;;;20.52;51.73;100552.47;7253567;19;153940;-54
2023/04/28 04:53:32;;;;;;;;;;;;;;;20.51;52.01;100559.22;7253183;19;153360;-55
2023/04/28 04:55:59;;;;;;;;;;;;;;;20.50;51.79;100551.94;7257778;19;153354;-55
2023/04/28 04:58:26;;;;;;;;;;;;;;;20.48;52.05;100556.25;7250456;19;153838;-55
2023/04/28 05:00:56;;;;;;;;;;;;;;;20.47;51.67;100557.38;7249030;19;152363;-55
2023/04/28 05:03:23;;;;;;;;;;;;;;;20.46;51.79;100555.72;7248736;19;154563;-54
2023/04/28 05:05:50;;;;;;;;;;;;;;;20.45;51.86;100562.47;7250703;19;152440;-55
2023/04/28 05:08:17;;;;;;;;;;;;;;;20.44;51.98;100553.25;7253759;19;153877;-54
2023/04/28 05:10:45;;;;;;;;;;;;;;;20.44;52.06;100560.84;7248967;19;154702;-55
2023/04/28 05:13:12;;;;;;;;;;;;;;;20.44;52.17;100560.84;7252576;19;153126;-56
2023/04/28 05:15:39;;;;;;;;;;;;;;;20.42;52.04;100559.16;7245836;19;154065;-56
2023/04/28 05:18:09;;;;;;;;;;;;;;;20.49;52.07;100563.53;7260962;19;152864;-57
2023/04/28 05:20:36;;;;;;;;;;;;;;;20.56;52.27;100569.50;7253947;19;155295;-55
2023/04/28 05:23:07;;;;;;;;;;;;;;;20.60;52.28;100571.38;7249802;19;155495;-55
2023/04/28 05:25:34;;;;;;;;;;;;;;;20.66;52.01;100575.72;7253423;19;153051;-55
2023/04/28 05:28:06;;;;;;;;;;;;;;;20.71;52.15;100578.41;7251782;19;153496;-55
2023/04/28 05:30:33;;;;;;;;;;;;;;;20.76;52.27;100583.03;7247380;19;155587;-55
2023/04/28 05:33:00;;;;;;;;;;;;;;;20.81;52.48;100583.72;7249918;19;153954;-55
2023/04/28 05:35:27;;;;;;;;;;;;;;;20.84;52.35;100583.13;7254840;19;155323;-56
2023/04/28 05:37:54;;;;;;;;;;;;;;;20.90;51.94;100580.16;7257875;19;154234;-55
2023/04/28 05:40:22;;;;;;;;;;;;;;;20.95;52.37;100580.84;7251418;19;154698;-55
2023/04/28 05:42:48;;;;;;;;;;;;;;;21.00;51.83;100591.97;7251806;19;153615;-55
2023/04/28 05:45:16;;;;;;;;;;;;;;;21.03;52.18;100585.69;7247733;19;153235;-55
2023/04/28 05:47:43;;;;;;;;;;;;;;;21.06;52.16;100578.63;7250605;19;153431;-56
2023/04/28 05:50:10;;;;;;;;;;;;;;;21.09;51.28;100592.84;7249701;19;153460;-55
2023/04/28 05:52:37;;;;;;;;;;;;;;;21.12;51.75;100592.19;7252319;19;154019;-55
2023/04/28 05:55:04;;;;;;;;;;;;;;;21.15;51.59;100597.22;7250073;19;154930;-55
2023/04/28 05:57:31;;;;;;;;;;;;;;;21.19;51.19;100597.41;7248683;19;153191;-55
2023/04/28 06:00:15;;;;;;;;;;;;;;;21.21;51.24;100600.75;7256424;19;153456;-55
2023/04/28 06:02:42;;;;;;;;;;;;;;;21.23;50.88;100599.25;7248889;19;153477;-54
2023/04/28 06:05:10;;;;;;;;;;;;;;;21.26;51.07;100603.38;7251461;19;154271;-60
2023/04/28 06:07:37;;;;;;;;;;;;;;;21.28;50.92;100603.91;7251567;19;153682;-56
2023/04/28 06:10:05;;;;;;;;;;;;;;;21.32;50.73;100604.09;7248626;19;154318;-56
2023/04/28 06:12:32;;;;;;;;;;;;;;;21.32;50.58;100609.72;7251923;19;153839;-56
2023/04/28 06:14:59;;;;;;;;;;;;;;;21.34;50.57;100611.06;7247088;19;155178;-55
2023/04/28 06:17:26;;;;;;;;;;;;;;;21.37;50.85;100620.81;7248006;19;154485;-56
2023/04/28 06:19:54;;;;;;;;;;;;;;;21.36;51.07;100616.34;7248663;19;153330;-56
2023/04/28 06:22:21;;;;;;;;;;;;;;;21.12;51.93;100617.47;7257116;19;154468;-56
2023/04/28 06:24:49;;;;;;;;;;;;;;;21.20;51.46;100628.00;7249284;19;153591;-55
2023/04/28 06:27:16;;;;;;;;;;;;;;;21.24;51.06;100629.00;7256016;19;153639;-56
2023/04/28 06:29:43;;;;;;;;;;;;;;;21.28;51.22;100615.16;7252735;19;154747;-56
2023/04/28 06:32:10;;;;;;;;;;;;;;;21.30;50.94;100629.72;7257394;19;154038;-56
2023/04/28 06:34:37;;;;;;;;;;;;;;;21.30;50.43;100629.72;7257779;19;154774;-56
2023/04/28 06:37:05;;;;;;;;;;;;;;;21.31;50.75;100636.97;7260181;19;154793;-56
2023/04/28 06:39:32;;;;;;;;;;;;;;;21.32;50.34;100635.00;7253751;19;152820;-55
2023/04/28 06:42:01;;;;;;;;;;;;;;;21.31;50.13;100645.41;7257984;19;153425;-56
2023/04/28 06:44:28;;;;;;;;;;;;;;;21.30;50.28;100640.97;7259359;19;153612;-56
2023/04/28 06:46:57;;;;;;;;;;;;;;;21.32;50.41;100640.63;7256415;19;156924;-56
2023/04/28 06:49:24;;;;;;;;;;;;;;;21.29;49.94;100648.56;7254521;19;154015;-56
2023/04/28 06:51:52;;;;;;;;;;;;;;;21.20;50.65;100646.84;7255993;19;153169;-56
2023/04/28 06:54:21;;;;;;;;;;;;;;;21.15;50.79;100646.97;7256100;19;153916;-56
2023/04/28 06:56:48;;;;;;;;;;;;;;;21.16;50.61;100649.47;7253193;19;156375;-56
2023/04/28 06:59:15;;;;;;;;;;;;;;;21.17;50.75;100653.06;7253195;19;153777;-56
2023/04/28 07:01:42;;;;;;;;;;;;;;;21.16;50.66;100649.47;7256978;19;153331;-56
2023/04/28 07:04:12;;;;;;;;;;;;;;;21.15;50.22;100653.41;7256861;19;155174;-56
2023/04/28 07:06:40;;;;;;;;;;;;;;;21.14;50.31;100656.53;7263464;19;153733;-56
2023/04/28 07:09:07;;;;;;;;;;;;;;;21.12;50.48;100661.63;7256768;19;153376;-56
2023/04/28 07:11:34;;;;;;;;;;;;;;;21.11;50.22;100655.19;7255332;19;153693;-56
2023/04/28 07:14:03;;;;;;;;;;;;;;;21.09;50.42;100656.63;7255294;19;154465;-56
2023/04/28 07:16:31;;;;;;;;;;;;;;;21.07;50.45;100659.78;7253784;19;153739;-56
2023/04/28 07:18:58;;;;;;;;;;;;;;;21.09;49.91;100656.63;7256437;19;154755;-56
2023/04/28 07:21:27;;;;;;;;;;;;;;;21.09;50.42;100668.69;7252664;19;153179;-55
2023/04/28 07:23:55;;;;;;;;;;;;;;;21.17;50.01;100672.75;7255850;19;153832;-55
2023/04/28 07:26:25;;;;;;;;;;;;;;;21.17;50.48;100670.75;7262717;19;153527;-56
2023/04/28 07:28:52;;;;;;;;;;;;;;;21.14;50.38;100665.78;7253733;19;153792;-56
2023/04/28 07:31:20;;;;;;;;;;;;;;;21.13;50.66;100678.19;7252949;19;154092;-56
2023/04/28 07:33:47;;;;;;;;;;;;;;;21.07;50.26;100681.41;7260260;19;154249;-56
2023/04/28 07:36:15;;;;;;;;;;;;;;;21.02;50.37;100673.94;7256563;19;155553;-59
2023/04/28 07:38:42;;;;;;;;;;;;;;;21.03;50.17;100683.19;7256437;19;153619;-56
2023/04/28 07:41:09;;;;;;;;;;;;;;;20.98;50.23;100694.56;7254596;19;153980;-56
2023/04/28 07:43:37;;;;;;;;;;;;;;;20.97;50.16;100692.88;7255916;19;153327;-55
2023/04/28 07:46:04;;;;;;;;;;;;;;;20.92;50.08;100688.22;7253071;19;153974;-56
2023/04/28 07:48:31;;;;;;;;;;;;;;;20.91;50.04;100692.19;7264554;19;154168;-58
2023/04/28 07:50:58;;;;;;;;;;;;;;;20.88;50.22;100704.06;7251475;19;153724;-56
2023/04/28 07:53:29;;;;;;;;;;;;;;;20.91;50.19;100696.97;7254993;19;153601;-56
2023/04/28 07:55:57;;;;;;;;;;;;;;;20.82;50.51;100697.72;7228149;19;154596;-55
2023/04/28 07:58:25;;;;;;;;;;;;;;;20.86;50.11;100709.16;7241295;19;154475;-56
2023/04/28 08:00:54;;;;;;;;;;;;;;;20.84;50.41;100709.47;7252704;19;154285;-55
2023/04/28 08:03:22;;;;;;;;;;;;;;;20.83;50.39;100707.81;7247190;19;156929;-56
2023/04/28 08:05:52;;;;;;;;;;;;;;;20.81;50.49;100709.25;7245854;19;155172;-56
2023/04/28 08:08:23;;;;;;;;;;;;;;;20.83;50.01;100710.63;7250334;19;154494;-56
2023/04/28 08:10:51;;;;;;;;;;;;;;;20.81;50.22;100714.88;7262196;19;153819;-56
2023/04/28 08:13:18;;;;;;;;;;;;;;;20.79;50.56;100720.81;7253660;19;153686;-56
2023/04/28 08:15:47;;;;;;;;;;;;;;;20.78;50.09;100712.72;7246766;19;153515;-56
2023/04/28 08:18:14;;;;;;;;;;;;;;;20.77;50.29;100714.69;7236623;19;153895;-58
2023/04/28 08:20:42;;;;;;;;;;;;;;;20.74;50.47;100720.09;7255409;19;153574;-60
2023/04/28 08:23:09;;;;;;;;;;;;;;;20.74;50.07;100722.91;7251505;19;153975;-60
2023/04/28 08:25:36;;;;;;;;;;;;;;;20.73;50.04;100721.25;7251290;19;152365;-61
2023/04/28 08:28:05;;;;;;;;;;;;;;;20.72;50.48;100723.22;7250052;19;154283;-60
2023/04/28 08:30:32;;;;;;;;;;;;;;;20.70;50.27;100716.28;7253094;19;154105;-60
2023/04/28 08:33:00;;;;;;;;;;;;;;;20.67;50.38;100731.75;7261077;19;153407;-60
2023/04/28 08:35:28;;;;;;;;;;;;;;;20.66;50.13;100730.13;7250836;19;153759;-60
2023/04/28 08:37:56;;;;;;;;;;;;;;;20.68;49.98;100727.81;7248234;19;153479;-60
2023/04/28 08:40:24;;;;;;;;;;;;;;;20.66;49.93;100729.28;7253765;19;153325;-60
2023/04/28 08:42:51;;;;;;;;;;;;;;;20.68;50.13;100733.41;7251786;19;154807;-60
2023/04/28 08:45:19;;;;;;;;;;;;;;;20.66;50.07;100732.09;7246247;19;154534;-60
2023/04/28 08:47:48;;;;;;;;;;;;;;;20.68;49.60;100725.00;7248706;19;154586;-60
2023/04/28 08:50:19;;;;;;;;;;;;;;;20.68;49.52;100738.19;7249480;19;154992;-60
2023/04/28 08:52:51;;;;;;;;;;;;;;;20.68;49.66;100746.63;7252374;19;154077;-61
2023/04/28 08:55:18;;;;;;;;;;;;;;;20.64;49.84;100743.63;7256192;19;154317;-60
2023/04/28 08:57:50;;;;;;;;;;;;;;;20.64;50.19;100738.00;7248997;19;154621;-60
2023/04/28 09:00:17;;;;;;;;;;;;;;;20.64;49.55;100742.78;7251856;19;153360;-60
2023/04/28 09:02:45;;;;;;;;;;;;;;;20.63;49.87;100741.13;7251738;19;152917;-60
2023/04/28 09:05:13;;;;;;;;;;;;;;;20.62;49.71;100739.47;7247465;19;151967;-60
2023/04/28 09:07:45;;;;;;;;;;;;;;;20.60;49.92;100745.41;7249773;19;154136;-60
2023/04/28 09:10:27;;;;;;;;;;;;;;;20.59;49.51;100740.91;7244222;19;154112;-61
2023/04/28 09:12:55;;;;;;;;;;;;;;;20.57;49.52;100750.81;7251210;19;154141;-60
2023/04/28 09:15:26;;;;;;;;;;;;;;;20.56;50.03;100758.41;7246652;19;152789;-60
2023/04/28 09:17:55;;;;;;;;;;;;;;;20.54;50.02;100746.63;7257484;19;154371;-60
2023/04/28 09:20:24;;;;;;;;;;;;;;;20.53;49.81;100759.03;7252255;19;153912;-60
2023/04/28 09:22:52;;;;;;;;;;;;;;;20.51;50.09;100758.50;7252457;19;154075;-61
2023/04/28 09:25:21;;;;;;;;;;;;;;;20.50;50.15;100761.63;7250399;19;153910;-60
2023/04/28 09:27:49;;;;;;;;;;;;;;;20.52;50.04;100756.53;7249960;19;153491;-60
2023/04/28 09:30:17;;;;;;;;;;;;;;;20.51;49.87;100757.66;7251428;19;154067;-60
2023/04/28 09:32:44;;;;;;;;;;;;;;;20.53;50.03;100767.47;7252369;19;154122;-60
2023/04/28 09:35:12;;;;;;;;;;;;;;;20.54;49.97;100766.28;7248106;19;154566;-59
2023/04/28 09:37:39;;;;;;;;;;;;;;;20.55;49.46;100759.53;7252926;19;153592;-59
2023/04/28 09:40:08;;;;;;;;;;;;;;;20.53;49.57;100770.25;7249259;19;152454;-59
2023/04/28 09:42:41;;;;;;;;;;;;;;;20.52;49.81;100767.75;7250983;19;154313;-59
2023/04/28 09:45:10;;;;;;;;;;;;;;;20.50;49.84;100767.22;7245092;19;153948;-58
2023/04/28 09:47:39;;;;;;;;;;;;;;;20.52;49.42;100768.59;7250097;19;153377;-60
2023/04/28 09:50:10;;;;;;;;;;;;;;;20.51;49.52;100766.91;7252661;19;154636;-60
2023/04/28 09:52:37;;;;;;;;;;;;;;;20.52;49.80;100776.19;7252175;19;153426;-61
2023/04/28 09:55:07;;;;;;;;;;;;;;;20.48;49.86;100770.38;7247997;19;153194;-60
2023/04/28 09:57:36;;;;;;;;;;;;;;;20.46;49.85;100780.22;7252511;19;153824;-60
2023/04/28 10:00:05;;;;;;;;;;;;;;;20.46;49.77;100778.25;7252358;19;154300;-60
2023/04/28 10:02:33;;;;;;;;;;;;;;;20.46;49.80;100780.22;7250295;19;154340;-60
2023/04/28 10:05:07;;;;;;;;;;;;;;;20.45;49.87;100784.16;7253934;19;152545;-59
2023/04/28 10:07:35;;;;;;;;;;;;;;;20.44;49.49;100783.38;7255753;19;154615;-59
2023/04/28 10:10:05;;;;;;;;;;;;;;;20.43;49.87;100781.69;7253177;19;155126;-59
2023/04/28 10:12:33;;;;;;;;;;;;;;;20.41;49.74;100787.59;7260162;19;153771;-59
2023/04/28 10:15:03;;;;;;;;;;;;;;;20.41;49.78;100798.00;7251747;19;154308;-58
2023/04/28 10:17:31;;;;;;;;;;;;;;;20.39;49.66;100798.31;7253185;19;153894;-59
2023/04/28 10:20:00;;;;;;;;;;;;;;;20.38;49.71;100810.69;7254847;19;153989;-59
2023/04/28 10:22:38;;;;;;;;;;;;;;;20.39;49.49;100811.53;7261245;19;154123;-59
2023/04/28 10:25:20;;;;;;;;;;;;;;;20.38;49.52;100809.84;7254828;19;154279;-59
2023/04/28 10:27:49;;;;;;;;;;;;;;;20.37;49.50;100817.44;7249701;19;153355;-60
2023/04/28 10:30:21;;;;;;;;;;;;;;;20.37;49.98;100816.59;7253301;19;153318;-59
2023/04/28 10:33:06;;;;;;;;;;;;;;;20.34;50.04;100826.47;7250032;19;152710;-59
2023/04/28 10:35:36;;;;;;;;;;;;;;;20.33;49.79;100838.00;7256601;19;155234;-60
2023/04/28 10:38:05;;;;;;;;;;;;;;;20.34;49.97;100831.25;7252529;19;156521;-59
2023/04/28 10:40:33;;;;;;;;;;;;;;;20.31;49.75;100832.69;7256353;19;154223;-59
2023/04/28 10:43:01;;;;;;;;;;;;;;;20.31;50.08;100832.69;7240139;19;153585;-59
2023/04/28 10:45:39;;;;;;;;;;;;;;;20.30;50.17;100844.25;7258913;19;154038;-59
2023/04/28 10:48:07;;;;;;;;;;;;;;;20.30;50.10;100844.25;7253539;19;153506;-59
2023/04/28 10:50:36;;;;;;;;;;;;;;;20.30;49.87;100847.06;7257179;19;152515;-58
2023/04/28 10:53:05;;;;;;;;;;;;;;;20.30;49.75;100847.06;7255071;19;153223;-59
2023/04/28 10:55:36;;;;;;;;;;;;;;;20.30;49.83;100847.06;7250624;19;154175;-58
2023/04/28 10:58:12;;;;;;;;;;;;;;;20.29;49.79;100857.41;7252450;19;156654;-59
2023/04/28 11:00:40;;;;;;;;;;;;;;;20.28;50.08;100861.34;7252177;19;153138;-59
2023/04/28 11:03:08;;;;;;;;;;;;;;;20.28;50.16;100852.09;7252522;19;155556;-59
2023/04/28 11:05:36;;;;;;;;;;;;;;;20.27;50.16;100853.22;7254080;19;153706;-59
2023/04/28 11:08:13;;;;;;;;;;;;;;;20.28;49.75;100858.53;7260470;19;154135;-59
2023/04/28 11:10:50;;;;;;;;;;;;;;;20.29;50.03;100862.19;7256989;19;153500;-61
2023/04/28 11:13:32;;;;;;;;;;;;;;;20.29;50.17;100854.59;7249338;19;154129;-58
2023/04/28 11:16:03;;;;;;;;;;;;;;;20.30;49.88;100863.91;7250629;19;153428;-58
2023/04/28 11:18:47;;;;;;;;;;;;;;;20.28;49.84;100852.09;7254155;19;155564;-58
2023/04/28 11:21:15;;;;;;;;;;;;;;;20.24;49.79;100857.50;7249953;19;152669;-58
2023/04/28 11:23:43;;;;;;;;;;;;;;;20.24;50.04;100865.09;7258009;19;153800;-58
2023/04/28 11:26:11;;;;;;;;;;;;;;;20.25;49.68;100861.16;7250627;19;155014;-58
2023/04/28 11:28:46;;;;;;;;;;;;;;;20.23;49.58;100860.59;7253320;19;153537;-60
2023/04/28 11:31:18;;;;;;;;;;;;;;;20.23;49.77;100869.03;7257660;19;154456;-59
2023/04/28 11:33:46;;;;;;;;;;;;;;;20.21;50.01;100874.13;7255756;19;154386;-60
2023/04/28 11:36:22;;;;;;;;;;;;;;;20.20;49.74;100876.09;7251929;19;153331;-60
2023/04/28 11:38:51;;;;;;;;;;;;;;;20.19;49.91;100888.44;7252735;19;154447;-60
2023/04/28 11:41:18;;;;;;;;;;;;;;;20.20;49.77;100872.47;7252631;19;154443;-60
2023/04/28 11:43:45;;;;;;;;;;;;;;;20.18;49.70;100878.38;7254269;19;155241;-60
2023/04/28 11:46:17;;;;;;;;;;;;;;;20.19;49.73;100884.81;7245870;19;154275;-60
2023/04/28 11:48:44;;;;;;;;;;;;;;;20.19;49.72;100898.84;7253042;19;153923;-60
2023/04/28 11:51:21;;;;;;;;;;;;;;;20.22;49.94;100879.41;7261961;19;153915;-60
2023/04/28 11:53:49;;;;;;;;;;;;;;;20.22;49.65;100882.22;7252158;19;154186;-59
2023/04/28 11:56:16;;;;;;;;;;;;;;;20.22;49.82;100892.59;7252908;19;153632;-60
2023/04/28 11:58:45;;;;;;;;;;;;;;;20.24;49.78;100887.53;7248692;19;154012;-60
2023/04/28 12:01:14;;;;;;;;;;;;;;;20.24;49.50;100893.13;7248747;19;153843;-59
2023/04/28 12:03:43;;;;;;;;;;;;;;;20.24;49.87;100893.13;7249393;19;155178;-60
2023/04/28 12:06:10;;;;;;;;;;;;;;;20.22;49.49;100882.22;7244512;19;153781;-59
2023/04/28 12:08:38;;;;;;;;;;;;;;;20.22;49.83;100893.44;7241158;19;154263;-60
2023/04/28 12:11:08;;;;;;;;;;;;;;;20.22;49.86;100893.44;7254142;19;154946;-60
2023/04/28 12:13:37;;;;;;;;;;;;;;;20.22;49.85;100887.81;7258403;19;155021;-60
2023/04/28 12:16:06;;;;;;;;;;;;;;;20.24;49.38;100898.75;7250137;19;154342;-59
2023/04/28 12:18:35;;;;;;;;;;;;;;;20.25;49.88;100892.00;7248962;19;156950;-59
2023/04/28 12:21:02;;;;;;;;;;;;;;;20.25;49.84;100897.63;7255783;19;153954;-60
2023/04/28 12:23:31;;;;;;;;;;;;;;;20.23;49.54;100900.72;7251484;19;154583;-60
2023/04/28 12:25:59;;;;;;;;;;;;;;;20.24;49.94;100901.56;7249481;19;153582;-60
2023/04/28 12:28:37;;;;;;;;;;;;;;;20.23;49.70;100908.31;7250877;19;154625;-60
2023/04/28 12:31:05;;;;;;;;;;;;;;;20.21;49.89;100908.63;7248677;19;154538;-59
2023/04/28 12:33:36;;;;;;;;;;;;;;;20.22;49.47;100907.47;7250552;19;155996;-60